Consulta les dades en temps real de l'estació municipal de Susqueda - Veïnat del Coll
| Hora UTC | 02:50 |
|---|---|
| Temperatura | 17.2 ºC |
| Humitat | 96.7 % |
| Pressió | 1022.9 hPa |
| Pluja | 0.0 mm |
| Velocitat vent | 3.5 km/h |
| Direcció vent | W |
| Radiació solar | 0.1 W/m² |
| Temperatura (ºC) | Humitat (%) | Pressió (hPa) | Velocitat vent (km/h) | Precipitació (mm) | Radiació solar (W/m²) | |||||||||||||
|---|---|---|---|---|---|---|---|---|---|---|---|---|---|---|---|---|---|---|
| Hora UTC | Aire | Humitat | Pressió | Vel. | Dir. | Vel. Max | Dir. | Intent. màx 5 min. | Rad. Sol. | |||||||||
| 00:05 | 17.0 | 94.2 | 1023.5 | 0.6 | SW | 0.6 | SW | 0.0 | 0.1 | |||||||||
| 00:10 | 16.9 | 94.2 | 1023.5 | 0.0 | NNE | 0.0 | SW | 0.0 | 0.1 | |||||||||
| 00:15 | 16.8 | 94.2 | 1023.5 | 0.1 | W | 1.1 | W | 0.0 | 0.1 | |||||||||
| 00:20 | 16.8 | 94.3 | 1023.5 | 1.2 | W | 3.5 | W | 0.0 | 0.1 | |||||||||
| 00:25 | 16.8 | 94.4 | 1023.4 | 2.7 | WSW | 4.2 | W | 0.0 | 0.1 | |||||||||
| 00:30 | 16.8 | 94.6 | 1023.4 | 3.1 | W | 3.9 | W | 0.0 | 0.1 | |||||||||
| 00:35 | 16.8 | 94.7 | 1023.3 | 3.2 | W | 4.2 | WSW | 0.0 | 0.1 | |||||||||
| 00:40 | 16.8 | 95.0 | 1023.3 | 2.8 | W | 4.6 | W | 0.0 | 0.1 | |||||||||
| 00:45 | 16.8 | 94.9 | 1023.3 | 2.4 | WSW | 3.5 | W | 0.0 | 0.1 | |||||||||
| 00:50 | 16.8 | 94.9 | 1023.3 | 1.7 | W | 3.2 | W | 0.0 | 0.1 | |||||||||
| 00:55 | 16.8 | 95.3 | 1023.3 | 1.2 | W | 2.1 | W | 0.0 | 0.1 | |||||||||
| 01:00 | 16.8 | 95.0 | 1023.3 | 1.2 | W | 2.5 | W | 0.0 | 0.1 | |||||||||
| 01:05 | 16.8 | 95.2 | 1023.3 | 2.5 | W | 3.2 | W | 0.0 | 0.1 | |||||||||
| 01:10 | 16.8 | 95.2 | 1023.3 | 2.3 | W | 3.2 | W | 0.0 | 0.1 | |||||||||
| 01:15 | 16.7 | 95.3 | 1023.3 | 0.9 | W | 2.5 | W | 0.0 | 0.1 | |||||||||
| 01:20 | 16.9 | 95.8 | 1023.3 | 1.4 | S | 3.9 | S | 0.0 | 0.1 | |||||||||
| 01:25 | 17.0 | 95.8 | 1023.3 | 2.5 | SSW | 3.2 | SSW | 0.0 | 0.1 | |||||||||
| 01:30 | 17.1 | 95.6 | 1023.3 | 1.5 | SSW | 2.5 | SSW | 0.0 | 0.1 | |||||||||
| 01:35 | 17.1 | 95.4 | 1023.3 | 1.3 | SSW | 2.1 | SSW | 0.0 | 0.1 | |||||||||
| 01:40 | 17.2 | 95.3 | 1023.3 | 0.4 | SW | 1.8 | WSW | 0.0 | 0.1 | |||||||||
| 01:45 | 17.2 | 95.0 | 1023.3 | 1.8 | SW | 3.5 | SW | 0.0 | 0.1 | |||||||||
| 01:50 | 17.3 | 94.9 | 1023.3 | 1.8 | SW | 3.9 | SW | 0.0 | 0.1 | |||||||||
| 01:55 | 17.3 | 94.7 | 1023.2 | 1.5 | SSE | 3.2 | SE | 0.0 | 0.1 | |||||||||
| 02:00 | 17.3 | 94.5 | 1023.2 | 0.1 | SE | 1.1 | ESE | 0.0 | 0.1 | |||||||||
| 02:05 | 17.1 | 94.3 | 1023.2 | 0.6 | W | 1.8 | W | 0.0 | 0.1 | |||||||||
| 02:10 | 17.1 | 94.8 | 1023.2 | 0.5 | SW | 2.8 | SSW | 0.0 | 0.1 | |||||||||
| 02:15 | 17.2 | 95.0 | 1023.1 | 0.0 | NNE | 0.0 | SW | 0.0 | 0.1 | |||||||||
| 02:20 | 17.1 | 95.1 | 1023.1 | 0.5 | W | 2.1 | W | 0.0 | 0.1 | |||||||||
| 02:25 | 17.2 | 95.3 | 1023.1 | 1.4 | SW | 4.6 | WSW | 0.0 | 0.1 | |||||||||
| 02:30 | 17.2 | 95.6 | 1023.1 | 2.7 | SW | 6.0 | S | 0.0 | 0.1 | |||||||||
| 02:35 | 17.2 | 96.0 | 1023.0 | 2.0 | SW | 9.2 | W | 0.0 | 0.1 | |||||||||
| 02:40 | 17.2 | 96.3 | 1023.0 | 2.9 | SW | 9.2 | W | 0.0 | 0.1 | |||||||||
| 02:45 | 17.2 | 96.5 | 1022.9 | 2.1 | WSW | 7.8 | S | 0.0 | 0.1 | |||||||||
| 02:50 | 17.2 | 96.7 | 1022.9 | 3.5 | W | 7.8 | SW | 0.0 | 0.1 | |||||||||
| Màxima | 17.3 | 96.7 | 1023.5 | 3.5 | W | 9.2 | W | 0.0 | 0.1 | |||||||||
| Mínima | 16.7 | 94.2 | 1022.9 | |||||||||||||||
| Total | 0.0 | |||||||||||||||||